Time;durP1;ratioP1;P1;durP2;ratioP2;P2;SDS_P1;SDS_P2;PMS_P1;PMS_P2;Temp;Humidity;BMP_temperature;BMP_pressure;BME280_temperature;BME280_humidity;BME280_pressure;Samples;Min_cycle;Max_cycle;Signal;HPM_P1;HPM_P2
2023/05/24 00:02:07;;;;;;;5.47;4.72;;;23.30;1.00;;;;;;5054108;28;20017;-58
2023/05/24 00:04:33;;;;;;;5.38;4.78;;;23.30;1.00;;;;;;5053220;28;20031;-57
2023/05/24 00:07:02;;;;;;;5.07;4.63;;;23.30;1.00;;;;;;5055930;28;20055;-58
2023/05/24 00:09:29;;;;;;;6.10;5.05;;;23.30;1.00;;;;;;5055291;28;20425;-59
2023/05/24 00:11:54;;;;;;;5.10;4.50;;;23.30;1.00;;;;;;5055381;28;20064;-58
2023/05/24 00:14:20;;;;;;;4.63;4.20;;;23.20;1.00;;;;;;5055176;28;20025;-58
2023/05/24 00:16:46;;;;;;;5.10;4.38;;;23.20;1.00;;;;;;5054502;28;20447;-58
2023/05/24 00:19:17;;;;;;;4.45;3.92;;;23.20;1.00;;;;;;5055330;28;20429;-57
2023/05/24 00:21:44;;;;;;;7.38;4.55;;;23.10;1.00;;;;;;5055646;28;20021;-59
2023/05/24 00:24:10;;;;;;;5.07;4.57;;;23.10;1.00;;;;;;5054990;28;20044;-58
2023/05/24 00:26:36;;;;;;;4.57;4.18;;;23.10;1.00;;;;;;5053889;28;20119;-58
2023/05/24 00:29:02;;;;;;;7.32;4.65;;;23.00;1.00;;;;;;5049743;28;20029;-58
2023/05/24 00:31:28;;;;;;;6.80;4.72;;;23.10;1.00;;;;;;5055119;28;20025;-58
2023/05/24 00:33:54;;;;;;;4.95;4.45;;;23.00;1.00;;;;;;5054901;28;20100;-58
2023/05/24 00:36:20;;;;;;;5.95;4.00;;;22.90;1.00;;;;;;5055287;28;20033;-58
2023/05/24 00:38:45;;;;;;;7.10;4.55;;;22.90;1.00;;;;;;5054752;28;20041;-58
2023/05/24 00:41:11;;;;;;;4.30;3.90;;;22.90;1.00;;;;;;5055135;28;20067;-57
2023/05/24 00:43:37;;;;;;;5.90;4.00;;;22.90;1.00;;;;;;5054571;28;20404;-57
2023/05/24 00:46:23;;;;;;;6.55;3.92;;;22.80;1.00;;;;;;5054823;28;20082;-58
2023/05/24 00:48:50;;;;;;;4.57;3.63;;;22.80;1.00;;;;;;5038409;28;20483;-58
2023/05/24 00:51:16;;;;;;;4.68;3.63;;;22.80;1.00;;;;;;5048941;28;20040;-57
2023/05/24 00:53:44;;;;;;;7.28;4.10;;;22.80;1.00;;;;;;5054581;28;20033;-56
2023/05/24 00:56:12;;;;;;;4.22;3.83;;;22.80;1.00;;;;;;5054437;28;20497;-57
2023/05/24 00:58:38;;;;;;;5.00;4.07;;;22.70;1.00;;;;;;5054162;28;20033;-57
2023/05/24 01:01:04;;;;;;;5.63;3.92;;;22.70;1.00;;;;;;5053080;28;20382;-58
2023/05/24 01:03:30;;;;;;;5.43;4.60;;;22.60;1.00;;;;;;5053466;28;20037;-58
2023/05/24 01:06:02;;;;;;;5.63;4.43;;;22.60;1.00;;;;;;5054479;28;20052;-57
2023/05/24 01:09:06;;;;;;;4.85;4.20;;;22.60;1.00;;;;;;5054030;28;20482;-58
2023/05/24 01:11:42;;;;;;;7.47;4.78;;;22.60;1.00;;;;;;5045020;28;20453;-57
2023/05/24 01:14:13;;;;;;;4.43;3.97;;;22.50;1.00;;;;;;5052714;28;20386;-57
2023/05/24 01:17:02;;;;;;;5.90;4.40;;;22.60;1.00;;;;;;5054034;28;20025;-57
2023/05/24 01:19:48;;;;;;;5.43;3.83;;;22.50;1.00;;;;;;5054227;28;20036;-57
2023/05/24 01:22:32;;;;;;;4.75;4.35;;;22.50;1.00;;;;;;5040325;28;20022;-57
2023/05/24 01:25:30;;;;;;;4.30;3.80;;;22.50;1.00;;;;;;5053941;28;20441;-56
2023/05/24 01:27:57;;;;;;;5.22;4.82;;;22.50;1.00;;;;;;5037815;28;20451;-57
2023/05/24 01:30:26;;;;;;;8.38;4.63;;;22.40;1.00;;;;;;5052600;28;20427;-57
2023/05/24 01:32:52;;;;;;;5.05;4.55;;;22.40;1.00;;;;;;5052866;28;20025;-58
2023/05/24 01:35:18;;;;;;;4.70;4.15;;;22.30;1.00;;;;;;5053146;28;20486;-57
2023/05/24 01:37:43;;;;;;;6.22;4.47;;;22.30;1.00;;;;;;5053439;28;20052;-58
2023/05/24 01:40:10;;;;;;;8.05;5.18;;;22.30;1.00;;;;;;5053042;28;20029;-57
2023/05/24 01:42:59;;;;;;;5.38;4.43;;;22.30;1.00;;;;;;5052992;28;20029;-56
2023/05/24 01:45:59;;;;;;;5.13;4.45;;;22.30;1.00;;;;;;5048496;28;20422;-57
2023/05/24 01:48:45;;;;;;;5.20;4.70;;;22.30;1.00;;;;;;5042104;28;20040;-58
2023/05/24 01:51:17;;;;;;;4.88;4.15;;;22.20;1.00;;;;;;5053301;28;20025;-57
2023/05/24 01:53:46;;;;;;;4.30;3.88;;;22.20;1.00;;;;;;5050386;28;20106;-58
2023/05/24 01:56:12;;;;;;;6.55;4.90;;;22.20;1.00;;;;;;5053516;28;20017;-57
2023/05/24 01:58:42;;;;;;;4.93;4.45;;;22.20;1.00;;;;;;5053565;28;20056;-57
2023/05/24 02:01:09;;;;;;;8.75;4.65;;;22.10;1.00;;;;;;5053662;28;20089;-57
2023/05/24 02:03:37;;;;;;;6.03;4.95;;;22.10;1.00;;;;;;5052845;28;20554;-57
2023/05/24 02:06:03;;;;;;;7.57;4.95;;;22.10;1.00;;;;;;5053284;28;20112;-57
2023/05/24 02:08:28;;;;;;;8.55;5.30;;;22.10;1.00;;;;;;5053198;28;20025;-57
2023/05/24 02:10:54;;;;;;;5.43;4.65;;;22.10;1.00;;;;;;5053531;28;20399;-57
2023/05/24 02:13:20;;;;;;;6.35;5.63;;;22.00;1.00;;;;;;5052412;28;20467;-57
2023/05/24 02:15:46;;;;;;;6.72;4.60;;;22.10;1.00;;;;;;5052955;28;20467;-57
2023/05/24 02:18:12;;;;;;;6.00;4.85;;;22.00;1.00;;;;;;5039258;28;20025;-56
2023/05/24 02:21:03;;;;;;;6.97;5.07;;;22.00;1.00;;;;;;5051327;28;20075;-58
2023/05/24 02:23:29;;;;;;;5.68;5.07;;;22.00;1.00;;;;;;5041045;28;20029;-55
2023/05/24 02:25:55;;;;;;;5.20;4.63;;;22.00;1.00;;;;;;5052829;28;20048;-56
2023/05/24 02:28:21;;;;;;;5.45;4.43;;;22.00;1.00;;;;;;5052847;28;20029;-56
2023/05/24 02:30:46;;;;;;;5.95;4.85;;;21.90;1.00;;;;;;5052819;28;20032;-57
2023/05/24 02:33:12;;;;;;;6.38;4.88;;;21.90;1.00;;;;;;5051502;28;20025;-55
2023/05/24 02:35:40;;;;;;;9.73;5.10;;;21.90;1.00;;;;;;5047266;28;20021;-54
2023/05/24 02:38:06;;;;;;;5.80;5.20;;;21.90;1.00;;;;;;5052409;28;20045;-57
2023/05/24 02:40:32;;;;;;;7.38;5.20;;;21.90;1.00;;;;;;5052094;28;20036;-57
2023/05/24 02:42:57;;;;;;;7.30;5.05;;;21.80;1.00;;;;;;5052154;28;20444;-57
2023/05/24 02:45:23;;;;;;;6.80;5.00;;;21.80;1.00;;;;;;5052486;28;20021;-57
2023/05/24 02:47:48;;;;;;;6.70;5.55;;;21.80;1.00;;;;;;5052795;28;20048;-57
2023/05/24 02:50:14;;;;;;;7.50;5.20;;;21.80;1.00;;;;;;5052686;28;20029;-57
2023/05/24 02:52:40;;;;;;;7.18;5.70;;;21.80;1.00;;;;;;5052218;28;20079;-57
2023/05/24 02:55:07;;;;;;;5.60;4.80;;;21.80;1.00;;;;;;5052722;28;20064;-56
2023/05/24 02:57:33;;;;;;;10.55;5.88;;;21.70;1.00;;;;;;5052466;28;20009;-57
2023/05/24 02:59:59;;;;;;;5.40;4.93;;;21.70;1.00;;;;;;5040170;28;20036;-55
2023/05/24 03:02:27;;;;;;;6.00;5.25;;;21.70;1.00;;;;;;5052875;28;20108;-57
2023/05/24 03:04:53;;;;;;;7.85;5.40;;;21.70;1.00;;;;;;5052581;28;20036;-56
2023/05/24 03:07:18;;;;;;;9.68;5.35;;;21.70;1.00;;;;;;5052648;28;20025;-56
2023/05/24 03:09:44;;;;;;;5.32;4.93;;;21.60;1.00;;;;;;5049106;28;20426;-56
2023/05/24 03:12:10;;;;;;;8.23;4.78;;;21.60;1.00;;;;;;5042043;28;20459;-54
2023/05/24 03:14:35;;;;;;;7.18;5.57;;;21.60;1.00;;;;;;5051954;28;20032;-56
2023/05/24 03:17:01;;;;;;;5.50;4.93;;;21.60;1.00;;;;;;5052311;28;20033;-57
2023/05/24 03:19:27;;;;;;;7.45;5.25;;;21.60;1.00;;;;;;5052444;28;20463;-56
2023/05/24 03:21:52;;;;;;;6.35;5.47;;;21.50;1.00;;;;;;5052438;28;20021;-54
2023/05/24 03:24:19;;;;;;;8.98;5.00;;;21.50;1.00;;;;;;5052055;28;20044;-56
2023/05/24 03:26:45;;;;;;;6.15;5.55;;;21.50;1.00;;;;;;5052341;28;20020;-57
2023/05/24 03:29:11;;;;;;;6.35;5.75;;;21.40;1.00;;;;;;5052487;28;20115;-56
2023/05/24 03:31:36;;;;;;;7.68;5.68;;;21.40;1.00;;;;;;5052494;28;20064;-55
2023/05/24 03:34:02;;;;;;;6.35;5.75;;;21.40;1.00;;;;;;5052005;28;20057;-54
2023/05/24 03:36:27;;;;;;;8.73;5.80;;;21.40;1.00;;;;;;5052142;28;20044;-57
2023/05/24 03:38:54;;;;;;;6.47;5.68;;;21.40;1.00;;;;;;5051989;28;20049;-56
2023/05/24 03:41:19;;;;;;;7.53;5.65;;;21.40;1.00;;;;;;5052147;28;20029;-56
2023/05/24 03:43:45;;;;;;;5.80;5.30;;;21.40;1.00;;;;;;5052202;28;20033;-56
2023/05/24 03:46:11;;;;;;;6.35;5.70;;;21.40;1.00;;;;;;5052027;28;20515;-55
2023/05/24 03:48:36;;;;;;;6.35;5.75;;;21.40;1.00;;;;;;5050151;28;20112;-56
2023/05/24 03:51:02;;;;;;;5.93;5.03;;;21.40;1.00;;;;;;5040212;28;20033;-55
2023/05/24 03:53:28;;;;;;;6.43;5.80;;;21.30;1.00;;;;;;5043191;28;20025;-56
2023/05/24 03:55:54;;;;;;;6.07;5.55;;;21.40;1.00;;;;;;5055673;28;20028;-57
2023/05/24 03:58:19;;;;;;;6.32;5.53;;;21.30;1.00;;;;;;5055582;28;20426;-57
2023/05/24 04:00:46;;;;;;;7.28;5.75;;;21.30;1.00;;;;;;5055560;28;20036;-54
2023/05/24 04:03:11;;;;;;;6.55;5.85;;;21.30;1.00;;;;;;5053989;28;20044;-53
2023/05/24 04:05:37;;;;;;;6.65;5.13;;;21.30;1.00;;;;;;5055467;28;20029;-52
2023/05/24 04:08:03;;;;;;;8.75;5.93;;;21.30;1.00;;;;;;5055510;28;20021;-56
2023/05/24 04:10:28;;;;;;;6.40;5.45;;;21.30;1.00;;;;;;5054324;28;20060;-54
2023/05/24 04:12:55;;;;;;;11.90;6.28;;;21.30;1.00;;;;;;5054833;28;20025;-56
2023/05/24 04:15:22;;;;;;;9.82;6.13;;;21.30;1.00;;;;;;5055604;28;20120;-57
2023/05/24 04:17:53;;;;;;;7.75;5.90;;;21.30;1.00;;;;;;5055427;28;20437;-56
2023/05/24 04:20:22;;;;;;;6.53;5.75;;;21.40;1.00;;;;;;5055596;28;20487;-55
2023/05/24 04:22:48;;;;;;;5.93;5.43;;;21.30;1.00;;;;;;5055242;28;20530;-56
2023/05/24 04:25:14;;;;;;;7.57;6.32;;;21.30;1.00;;;;;;5055509;28;20033;-57
2023/05/24 04:27:40;;;;;;;8.77;6.00;;;21.40;1.00;;;;;;5055155;28;20493;-56
2023/05/24 04:30:08;;;;;;;7.22;6.20;;;21.40;1.00;;;;;;5055187;28;20028;-57
2023/05/24 04:32:33;;;;;;;7.32;6.05;;;21.40;1.00;;;;;;5054950;28;20162;-56
2023/05/24 04:35:01;;;;;;;8.05;5.57;;;21.40;1.00;;;;;;5055164;28;20079;-57
2023/05/24 04:37:28;;;;;;;6.93;5.90;;;21.30;1.00;;;;;;5054716;28;20095;-55
2023/05/24 04:39:54;;;;;;;7.30;6.47;;;21.30;1.00;;;;;;5055120;28;20055;-56
2023/05/24 04:42:20;;;;;;;7.90;6.45;;;21.30;1.00;;;;;;5054542;28;20023;-56
2023/05/24 04:44:46;;;;;;;7.78;6.60;;;21.30;1.00;;;;;;5054981;28;20032;-57
2023/05/24 04:47:13;;;;;;;8.68;6.47;;;21.30;1.00;;;;;;5054778;28;20423;-56
2023/05/24 04:49:39;;;;;;;8.95;5.93;;;21.40;1.00;;;;;;5054491;28;20089;-56
2023/05/24 04:52:05;;;;;;;8.05;6.15;;;21.40;1.00;;;;;;5054525;28;20049;-57
2023/05/24 04:54:31;;;;;;;7.00;6.18;;;21.40;1.00;;;;;;5053448;28;20025;-56
2023/05/24 04:56:57;;;;;;;8.10;5.75;;;21.40;1.00;;;;;;5054773;28;20375;-55
2023/05/24 05:02:45;;;;;;;7.85;6.22;;;21.30;1.00;;;;;;5043434;28;20052;-57
2023/05/24 05:05:11;;;;;;;7.15;6.45;;;21.40;1.00;;;;;;5054319;28;20029;-57
2023/05/24 05:07:37;;;;;;;12.75;6.97;;;21.40;1.00;;;;;;5053299;28;20133;-56
2023/05/24 05:10:03;;;;;;;9.57;7.43;;;21.40;1.00;;;;;;5054315;28;20487;-59
2023/05/24 05:12:28;;;;;;;10.32;7.13;;;21.40;1.00;;;;;;5054649;28;20039;-56
2023/05/24 05:14:54;;;;;;;10.07;8.30;;;21.40;1.00;;;;;;5054248;28;20016;-56
2023/05/24 05:17:20;;;;;;;12.43;8.70;;;21.40;1.00;;;;;;5053830;28;20457;-57
2023/05/24 05:19:46;;;;;;;12.90;9.13;;;21.40;1.00;;;;;;5054159;28;20025;-57
2023/05/24 05:22:11;;;;;;;14.13;8.85;;;21.40;1.00;;;;;;5054117;28;20044;-57
2023/05/24 05:24:37;;;;;;;11.55;8.10;;;21.50;1.00;;;;;;5054080;28;20104;-55
2023/05/24 05:27:03;;;;;;;11.90;8.93;;;21.50;1.00;;;;;;5053897;28;20540;-56
2023/05/24 05:29:28;;;;;;;12.98;9.32;;;21.50;1.00;;;;;;5054002;28;20163;-57
2023/05/24 05:31:54;;;;;;;11.85;9.55;;;21.50;1.00;;;;;;5053672;28;20049;-56
2023/05/24 05:34:20;;;;;;;11.57;8.95;;;21.50;1.00;;;;;;5053925;28;20107;-57
2023/05/24 05:36:46;;;;;;;11.18;9.45;;;21.50;1.00;;;;;;5050111;28;20032;-57
2023/05/24 05:39:11;;;;;;;16.45;9.48;;;21.60;1.00;;;;;;5041035;28;20115;-57
2023/05/24 05:41:44;;;;;;;13.90;9.55;;;21.60;1.00;;;;;;5051337;28;20025;-57
2023/05/24 05:44:11;;;;;;;10.95;9.40;;;21.60;1.00;;;;;;5052653;28;20036;-56
2023/05/24 05:46:37;;;;;;;11.32;8.93;;;21.60;1.00;;;;;;5052762;28;20633;-57
2023/05/24 05:49:03;;;;;;;11.95;9.75;;;21.60;1.00;;;;;;5045112;28;20022;-57
2023/05/24 05:51:29;;;;;;;12.75;9.65;;;21.60;1.00;;;;;;5050948;28;20470;-57
2023/05/24 05:53:55;;;;;;;13.35;10.20;;;21.60;1.00;;;;;;5053536;28;20043;-57
2023/05/24 05:56:20;;;;;;;11.27;9.25;;;21.60;1.00;;;;;;5053305;28;20025;-56
2023/05/24 05:58:46;;;;;;;11.02;9.57;;;21.60;1.00;;;;;;5053521;28;20025;-55
2023/05/24 06:01:12;;;;;;;11.77;10.35;;;21.60;1.00;;;;;;5053343;28;20037;-54
2023/05/24 06:03:37;;;;;;;13.35;10.10;;;21.70;1.00;;;;;;5053027;28;20467;-57
2023/05/24 06:06:03;;;;;;;13.43;11.40;;;21.60;1.00;;;;;;5052971;28;20039;-55
2023/05/24 06:08:33;;;;;;;13.45;11.57;;;21.60;1.00;;;;;;5052342;28;20040;-55
2023/05/24 06:10:59;;;;;;;17.23;12.05;;;21.60;1.00;;;;;;5053174;28;20033;-56
2023/05/24 06:13:27;;;;;;;15.32;12.07;;;21.70;1.00;;;;;;5053307;28;20027;-56
2023/05/24 06:15:53;;;;;;;14.75;11.88;;;21.70;1.00;;;;;;5052465;28;20029;-52
2023/05/24 06:18:19;;;;;;;14.23;12.80;;;21.70;1.00;;;;;;5052779;28;20429;-53
2023/05/24 06:20:45;;;;;;;14.68;12.65;;;21.70;1.00;;;;;;5053135;28;20170;-50
2023/05/24 06:23:11;;;;;;;17.15;13.10;;;21.80;1.00;;;;;;5051720;28;20513;-56
2023/05/24 06:25:39;;;;;;;13.95;12.48;;;21.90;1.00;;;;;;5052514;28;20025;-56
2023/05/24 06:28:04;;;;;;;15.68;12.60;;;22.00;1.00;;;;;;5052843;28;20051;-55
2023/05/24 06:30:32;;;;;;;17.98;13.27;;;22.10;1.00;;;;;;5053108;28;20035;-54
2023/05/24 06:32:58;;;;;;;14.20;12.25;;;22.20;1.00;;;;;;5052797;28;20100;-52
2023/05/24 06:35:23;;;;;;;17.70;14.32;;;22.30;1.00;;;;;;5049951;28;20102;-54
2023/05/24 06:37:49;;;;;;;16.80;14.15;;;22.40;1.00;;;;;;5043464;28;20084;-50
2023/05/24 06:40:15;;;;;;;17.98;12.63;;;22.40;1.00;;;;;;5045146;28;20111;-55
2023/05/24 06:42:40;;;;;;;16.77;14.85;;;22.40;1.00;;;;;;5053014;28;20037;-55
2023/05/24 06:45:07;;;;;;;20.98;16.08;;;22.40;1.00;;;;;;5052621;28;20036;-54
2023/05/24 06:47:32;;;;;;;16.35;14.63;;;22.40;1.00;;;;;;5051376;28;20083;-53
2023/05/24 06:49:59;;;;;;;20.02;14.50;;;22.40;1.00;;;;;;5052840;28;20096;-56
2023/05/24 06:52:25;;;;;;;20.75;16.92;;;22.50;1.00;;;;;;5051905;28;20104;-55
2023/05/24 06:54:51;;;;;;;19.20;15.73;;;22.50;1.00;;;;;;5052962;28;20120;-57
2023/05/24 06:57:17;;;;;;;23.63;16.63;;;22.50;1.00;;;;;;5052609;28;20028;-55
2023/05/24 06:59:43;;;;;;;22.83;17.50;;;22.50;1.00;;;;;;5051850;28;20488;-56
2023/05/24 07:02:08;;;;;;;19.80;15.98;;;22.50;1.00;;;;;;5052304;28;20053;-51
2023/05/24 07:04:34;;;;;;;21.85;16.52;;;22.60;1.00;;;;;;5052425;28;20502;-54
2023/05/24 07:07:01;;;;;;;22.88;19.20;;;22.60;1.00;;;;;;5052467;28;20917;-54
2023/05/24 07:09:26;;;;;;;30.88;18.45;;;22.70;1.00;;;;;;5051994;28;20025;-53
2023/05/24 07:11:52;;;;;;;26.67;18.55;;;22.70;1.00;;;;;;5052178;28;20021;-52
2023/05/24 07:14:18;;;;;;;18.48;16.58;;;22.70;1.00;;;;;;5052481;28;20108;-53
2023/05/24 07:16:43;;;;;;;21.98;17.77;;;22.80;1.00;;;;;;5052410;28;20028;-51
2023/05/24 07:19:09;;;;;;;61.17;20.08;;;22.70;1.00;;;;;;5052464;28;20032;-55
2023/05/24 07:21:36;;;;;;;33.72;17.60;;;22.80;1.00;;;;;;5052719;28;20059;-54
2023/05/24 07:24:02;;;;;;;30.55;16.58;;;22.80;1.00;;;;;;5052157;28;20064;-54
2023/05/24 07:26:28;;;;;;;24.38;15.20;;;22.80;1.00;;;;;;5052302;28;20053;-54
2023/05/24 07:28:54;;;;;;;46.05;18.73;;;22.90;1.00;;;;;;5055703;28;20490;-59
2023/05/24 07:31:20;;;;;;;18.73;16.25;;;22.80;1.00;;;;;;5056519;28;20029;-59
2023/05/24 07:33:45;;;;;;;19.05;16.88;;;22.80;1.00;;;;;;5042097;28;20026;-59
2023/05/24 07:36:11;;;;;;;30.20;18.40;;;22.80;1.00;;;;;;5055567;28;20071;-60
2023/05/24 07:38:37;;;;;;;18.80;16.08;;;22.80;1.00;;;;;;5053477;28;20099;-59
2023/05/24 07:41:06;;;;;;;25.98;17.02;;;22.80;1.00;;;;;;5052818;28;20021;-60
2023/05/24 07:43:32;;;;;;;23.08;18.23;;;22.90;1.00;;;;;;5054212;28;20065;-60
2023/05/24 07:45:58;;;;;;;24.27;17.35;;;22.90;1.00;;;;;;5052864;28;20029;-60
2023/05/24 07:48:23;;;;;;;25.58;16.38;;;22.90;1.00;;;;;;5055867;28;20056;-60
2023/05/24 07:50:51;;;;;;;21.05;18.58;;;23.00;1.00;;;;;;5050443;28;20025;-60
2023/05/24 07:53:17;;;;;;;25.92;17.73;;;23.00;1.00;;;;;;5055678;28;20061;-60
2023/05/24 07:55:43;;;;;;;21.67;17.35;;;23.00;1.00;;;;;;5055845;28;20017;-60
2023/05/24 07:58:10;;;;;;;20.92;17.27;;;23.00;1.00;;;;;;5052656;28;20025;-60
2023/05/24 08:00:36;;;;;;;26.17;17.40;;;23.10;1.00;;;;;;5052614;28;20017;-60
2023/05/24 08:03:04;;;;;;;22.60;16.02;;;23.10;1.00;;;;;;5055391;28;20551;-59
2023/05/24 08:05:30;;;;;;;25.42;19.13;;;23.10;1.00;;;;;;5045088;28;20104;-59
2023/05/24 08:07:56;;;;;;;25.90;18.17;;;23.20;1.00;;;;;;5049380;28;20061;-59
2023/05/24 08:10:22;;;;;;;28.77;18.55;;;23.20;1.00;;;;;;5044571;28;20114;-60
2023/05/24 08:12:50;;;;;;;23.65;17.70;;;23.20;1.00;;;;;;5055355;28;20398;-59
2023/05/24 08:15:16;;;;;;;19.73;17.48;;;23.20;1.00;;;;;;5052384;28;20108;-61
2023/05/24 08:17:42;;;;;;;23.65;19.65;;;23.20;1.00;;;;;;5045908;28;20172;-60
2023/05/24 08:20:15;;;;;;;22.40;18.38;;;23.20;1.00;;;;;;5039847;28;20394;-60
2023/05/24 08:22:42;;;;;;;20.30;17.95;;;23.30;1.00;;;;;;5048627;28;20052;-60
2023/05/24 08:25:08;;;;;;;52.38;20.52;;;23.30;1.00;;;;;;5048898;28;20091;-60
2023/05/24 08:27:34;;;;;;;21.50;18.75;;;23.30;1.00;;;;;;5048291;28;20031;-60
2023/05/24 08:30:00;;;;;;;27.45;19.10;;;23.40;1.00;;;;;;5046367;28;20390;-60
2023/05/24 08:32:26;;;;;;;22.40;18.00;;;23.40;1.00;;;;;;5045090;28;20025;-60
2023/05/24 08:34:52;;;;;;;20.60;18.42;;;23.40;1.00;;;;;;5047990;28;20399;-60
2023/05/24 08:37:19;;;;;;;21.35;19.08;;;23.40;1.00;;;;;;5045020;28;20576;-60
2023/05/24 08:39:45;;;;;;;23.90;18.73;;;23.40;1.00;;;;;;5046683;28;20029;-60
2023/05/24 08:42:11;;;;;;;26.92;21.42;;;23.50;1.00;;;;;;5049042;28;20029;-60
2023/05/24 08:44:51;;;;;;;19.17;16.42;;;23.40;1.00;;;;;;5049469;28;20498;-60
2023/05/24 08:47:19;;;;;;;22.52;18.90;;;23.50;1.00;;;;;;5047970;28;22055;-60
2023/05/24 08:49:47;;;;;;;24.17;19.73;;;23.50;1.00;;;;;;5049100;28;20025;-61
2023/05/24 08:52:13;;;;;;;20.20;16.60;;;23.60;1.00;;;;;;5038271;28;20087;-60
2023/05/24 08:54:39;;;;;;;21.73;19.10;;;23.60;1.00;;;;;;5044751;28;20029;-60
2023/05/24 08:57:06;;;;;;;22.55;19.58;;;23.60;1.00;;;;;;5046908;28;20033;-60
2023/05/24 08:59:32;;;;;;;21.25;18.48;;;23.70;1.00;;;;;;5047491;28;20156;-59
2023/05/24 09:02:00;;;;;;;26.00;21.30;;;23.70;1.00;;;;;;5044418;28;20116;-59
2023/05/24 09:04:26;;;;;;;22.50;20.10;;;23.80;1.00;;;;;;5044418;28;20033;-60
2023/05/24 09:06:55;;;;;;;25.02;22.13;;;23.80;1.00;;;;;;5047573;28;20074;-60
2023/05/24 09:09:25;;;;;;;23.73;17.55;;;23.80;1.00;;;;;;5042041;28;20113;-60
2023/05/24 09:11:52;;;;;;;22.92;20.38;;;23.80;1.00;;;;;;5046894;28;20033;-60
2023/05/24 09:14:19;;;;;;;22.45;17.08;;;23.90;1.00;;;;;;5045182;28;20078;-60
2023/05/24 09:16:45;;;;;;;28.05;20.70;;;23.90;1.00;;;;;;5046020;28;20490;-60
2023/05/24 09:19:11;;;;;;;25.88;22.98;;;24.00;1.00;;;;;;5043215;28;20037;-63
2023/05/24 09:21:36;;;;;;;26.02;20.80;;;24.10;1.00;;;;;;5048341;28;20021;-53
2023/05/24 09:24:07;;;;;;;24.08;19.95;;;24.10;1.00;;;;;;5047895;28;20044;-56
2023/05/24 09:26:35;;;;;;;27.13;21.98;;;24.10;1.00;;;;;;5041249;28;20030;-56
2023/05/24 09:29:01;;;;;;;27.52;21.75;;;24.20;1.00;;;;;;5047767;28;20041;-51
2023/05/24 09:31:38;;;;;;;31.00;21.02;;;24.20;1.00;;;;;;5043368;28;20398;-54
2023/05/24 09:34:13;;;;;;;24.20;20.08;;;24.30;1.00;;;;;;5044514;28;20112;-55
2023/05/24 09:36:41;;;;;;;24.23;19.25;;;24.40;1.00;;;;;;5044363;28;20025;-51
2023/05/24 09:39:09;;;;;;;23.60;19.13;;;24.40;1.00;;;;;;5049308;28;20148;-51
2023/05/24 09:41:36;;;;;;;26.65;22.77;;;24.50;1.00;;;;;;5045385;28;20044;-52
2023/05/24 09:44:04;;;;;;;24.30;21.48;;;24.60;1.00;;;;;;5047197;28;20041;-51
2023/05/24 09:46:37;;;;;;;23.90;21.00;;;24.60;1.00;;;;;;5047550;28;20029;-55
2023/05/24 09:49:05;;;;;;;22.70;19.67;;;24.70;1.00;;;;;;5042558;28;20407;-53
2023/05/24 09:51:33;;;;;;;24.27;19.05;;;24.70;1.00;;;;;;5047925;28;20025;-54
2023/05/24 09:54:11;;;;;;;21.60;18.48;;;24.70;1.00;;;;;;5043374;28;20064;-54
2023/05/24 09:56:39;;;;;;;27.42;22.52;;;24.80;1.00;;;;;;5046721;28;20025;-53
2023/05/24 09:59:08;;;;;;;24.73;21.05;;;24.80;1.00;;;;;;5046863;28;20033;-51
2023/05/24 10:01:34;;;;;;;23.48;20.77;;;24.90;1.00;;;;;;5044761;28;20476;-52
2023/05/24 10:04:01;;;;;;;27.95;23.63;;;24.90;1.00;;;;;;5051175;28;20055;-53
2023/05/24 10:06:31;;;;;;;23.20;20.30;;;25.00;1.00;;;;;;5051254;28;20040;-51
2023/05/24 10:08:58;;;;;;;24.65;21.85;;;25.00;1.00;;;;;;5054844;28;20037;-47
2023/05/24 10:11:25;;;;;;;24.88;20.75;;;25.00;1.00;;;;;;5055094;28;20025;-51
2023/05/24 10:13:51;;;;;;;24.20;19.38;;;25.20;1.00;;;;;;5056231;28;20043;-48
2023/05/24 10:16:16;;;;;;;20.25;17.52;;;25.20;1.00;;;;;;5055938;28;20013;-47
2023/05/24 10:18:42;;;;;;;19.75;16.65;;;25.30;1.00;;;;;;5048411;28;20032;-47
2023/05/24 10:21:09;;;;;;;19.02;15.40;;;25.30;1.00;;;;;;5051788;28;20039;-49
2023/05/24 10:23:40;;;;;;;22.52;19.42;;;25.40;1.00;;;;;;5054081;28;20117;-49
2023/05/24 10:26:08;;;;;;;27.23;18.60;;;25.30;1.00;;;;;;5056018;28;20017;-51
2023/05/24 10:28:56;;;;;;;23.90;18.15;;;25.40;1.00;;;;;;5053282;28;20029;-48
2023/05/24 10:31:31;;;;;;;21.63;19.52;;;25.40;1.00;;;;;;5052169;28;20443;-47
2023/05/24 10:33:59;;;;;;;19.67;16.20;;;25.40;1.00;;;;;;5051715;28;20021;-49
2023/05/24 10:36:25;;;;;;;19.83;17.13;;;25.50;1.00;;;;;;5053606;28;20021;-48
2023/05/24 10:38:51;;;;;;;20.05;16.48;;;25.60;1.00;;;;;;5053865;28;20126;-50
2023/05/24 10:41:18;;;;;;;16.92;15.00;;;25.80;99.90;;;;;;5047272;28;20489;-49
2023/05/24 10:43:47;;;;;;;18.10;15.23;;;25.90;99.90;;;;;;5055390;28;20063;-47
2023/05/24 10:46:15;;;;;;;16.77;15.07;;;25.90;99.90;;;;;;5045252;28;20029;-49
2023/05/24 10:48:41;;;;;;;19.50;16.00;;;26.00;99.90;;;;;;5052466;28;20032;-48
2023/05/24 10:51:33;;;;;;;15.65;14.05;;;26.00;99.90;;;;;;5051229;28;20029;-47
2023/05/24 10:54:16;;;;;;;14.80;12.95;;;26.10;99.90;;;;;;5039759;28;20021;-49
2023/05/24 10:56:49;;;;;;;20.83;14.35;;;26.20;99.90;;;;;;5051969;28;20047;-46
2023/05/24 10:59:33;;;;;;;16.90;12.18;;;26.50;99.90;;;;;;5049884;28;20534;-48
2023/05/24 11:02:00;;;;;;;17.15;13.80;;;26.60;99.90;;;;;;5056489;28;20029;-47
2023/05/24 11:04:30;;;;;;;19.75;14.20;;;26.80;99.90;;;;;;5055567;28;20029;-49
2023/05/24 11:07:08;;;;;;;18.45;15.05;;;26.90;99.90;;;;;;5056759;28;20033;-51
2023/05/24 11:09:35;;;;;;;19.77;15.88;;;27.00;99.90;;;;;;5054793;28;20028;-54
2023/05/24 11:12:03;;;;;;;16.63;14.55;;;27.20;99.90;;;;;;5058288;28;20094;-50
2023/05/24 11:14:30;;;;;;;14.95;13.40;;;27.20;99.90;;;;;;5049422;28;20032;-52
2023/05/24 11:17:01;;;;;;;14.77;13.32;;;27.20;99.90;;;;;;5048621;28;20035;-52
2023/05/24 11:19:35;;;;;;;12.55;11.05;;;27.40;99.90;;;;;;5046182;28;20024;-54
2023/05/24 11:22:06;;;;;;;14.07;12.65;;;27.60;99.90;;;;;;5049417;28;20397;-50
2023/05/24 11:24:32;;;;;;;16.20;14.60;;;27.90;99.90;;;;;;5046892;28;20034;-50
2023/05/24 11:27:00;;;;;;;19.10;13.77;;;28.00;99.90;;;;;;5048100;28;20078;-51
2023/05/24 11:29:27;;;;;;;14.80;13.25;;;28.30;99.90;;;;;;5049033;28;20033;-49
2023/05/24 11:32:03;;;;;;;25.95;17.17;;;28.40;99.90;;;;;;5053483;28;20020;-51
2023/05/24 11:34:29;;;;;;;17.60;14.27;;;28.60;99.90;;;;;;5045681;28;20510;-49
2023/05/24 11:36:55;;;;;;;25.02;15.70;;;28.90;99.90;;;;;;5047858;28;20033;-50
2023/05/24 11:39:22;;;;;;;20.88;16.98;;;29.40;99.90;;;;;;5049731;28;20119;-48
2023/05/24 11:41:48;;;;;;;14.93;12.07;;;29.70;99.90;;;;;;5045119;28;20071;-49
2023/05/24 11:44:20;;;;;;;11.50;9.75;;;30.30;99.90;;;;;;5045776;28;20041;-49
2023/05/24 11:46:45;;;;;;;10.63;7.30;;;31.00;99.90;;;;;;5075990;28;20180;-51
2023/05/24 11:49:15;;;;;;;14.25;10.10;;;31.90;99.90;;;;;;5046823;28;20124;-46
2023/05/24 11:51:42;;;;;;;12.32;8.70;;;32.90;99.90;;;;;;5045740;28;20036;-49
2023/05/24 11:54:08;;;;;;;11.68;10.45;;;33.80;99.90;;;;;;5048992;28;20368;-52
2023/05/24 11:56:33;;;;;;;9.98;8.90;;;34.50;99.90;;;;;;5044502;28;20087;-52
2023/05/24 11:59:16;;;;;;;10.48;8.93;;;35.00;99.90;;;;;;5049391;28;20036;-49
2023/05/24 12:01:42;;;;;;;10.80;9.75;;;35.40;99.90;;;;;;5046890;28;20028;-48
2023/05/24 12:04:09;;;;;;;11.45;9.55;;;35.80;99.90;;;;;;5047596;28;20115;-46
2023/05/24 12:06:36;;;;;;;11.23;10.13;;;36.40;99.90;;;;;;5049988;28;20021;-45
2023/05/24 12:09:04;;;;;;;10.15;9.15;;;37.30;99.90;;;;;;5042624;28;20458;-48
2023/05/24 12:11:31;;;;;;;11.63;10.73;;;37.90;99.90;;;;;;5047272;28;20037;-45
2023/05/24 12:13:58;;;;;;;11.20;10.30;;;38.10;99.90;;;;;;5047028;28;20483;-51
2023/05/24 12:16:25;;;;;;;9.25;8.50;;;38.70;99.90;;;;;;5046404;28;20075;-47
2023/05/24 12:18:51;;;;;;;10.38;9.23;;;40.30;99.90;;;;;;5046295;28;20036;-47
2023/05/24 12:21:19;;;;;;;9.35;8.48;;;42.10;99.90;;;;;;5046117;28;20104;-48
2023/05/24 12:23:47;;;;;;;11.32;8.40;;;42.50;99.90;;;;;;5045801;28;20099;-47
2023/05/24 12:26:13;;;;;;;9.98;9.07;;;43.30;99.90;;;;;;5049051;28;20029;-50
2023/05/24 12:28:39;;;;;;;10.40;9.23;;;43.80;99.90;;;;;;5044616;28;20557;-50
2023/05/24 12:31:05;;;;;;;10.75;9.75;;;43.30;99.90;;;;;;5038539;28;20025;-49
2023/05/24 12:33:32;;;;;;;9.75;8.65;;;42.10;99.90;;;;;;5051801;28;20024;-52
2023/05/24 12:35:58;;;;;;;11.00;9.88;;;41.10;99.90;;;;;;5048653;28;20017;-51
2023/05/24 12:38:24;;;;;;;8.90;8.05;;;40.30;99.90;;;;;;5042143;28;20499;-49
2023/05/24 12:40:51;;;;;;;8.43;7.80;;;39.50;99.90;;;;;;5046916;28;20028;-51
2023/05/24 12:43:19;;;;;;;9.60;8.60;;;38.10;99.90;;;;;;5045279;28;20495;-51
2023/05/24 12:45:45;;;;;;;16.15;14.35;;;36.50;99.90;;;;;;5043295;28;20136;-49
2023/05/24 12:48:11;;;;;;;19.23;17.33;;;35.60;99.90;;;;;;5044950;28;20045;-47
2023/05/24 12:50:37;;;;;;;25.10;22.98;;;35.10;99.90;;;;;;5047468;28;20021;-47
2023/05/24 12:53:03;;;;;;;27.02;24.52;;;34.90;99.90;;;;;;5048212;28;20108;-48